Timeline UpdatesTrip UpdatesNews PostsPvt PostsTravel TipsAdmin PostsConv PostsFollowed PostsChat RequestsBlog PostsPNR Posts

Disclaimer
Search
 
 
Sun Aug 31, 2014 15:45:52 ISTHomeTrainsΣChainsAtlasPNRForumGalleryNewsFAQTripsMembersLoginFeedback
Latest...
Train leaving Lalgarh on 29/8/14 will be diverted to run via Siwan-Thawe-Kaptanganj-Gorakhpur #1198258 , Renumbered as 15910 wef 29/8/14 #1126088
Tue Aug 26, 2014 (10:21PM)
⇐ Return Journey: Train# 15909

15610⇒15910/Avadh Assam Express

Aug 29 (11:29PM)
Change Departure Station:
Change Arrival Station:
Post a Train Travel TipPost a Train Travel Tip **new
Post a Comment/Question/Picture/VideoPost a Comment/Question/Picture/Video
Pantry/Catering
✓ Pantry Car Avbl
✓ Catering Avbl
Loco/Rake Reversals
BTI/Bathinda Junction (6);
RSA - Rake Sharing
No Rake Sharing
Rake/Coach Composition
Loco-HCPV-HCPV-SLR-GS-GS-A1-B1-Army 3A-B2-PC-S1-S2-S3-S4-S5-S6-S7-S8-S9-S10-GS-GS-SLR.
Loco
SGUJ WDP#4B or 4D
News    PNR    Forum    Time-Table    Availability    Fare Chart    Map    Arr/Dep History    Trips    Gallery    ΣChains    X/O    Timeline    
Travel Time: 19h 58m    29 halts    Distance: 1037 km    Avg Speed: 51 km/hr
Type: Mail/Express
Zone: NFR/Northeast Frontier
Departs @ 19:45
Platform# 1
SMTWTFS
Lalgarh Junction/LGH 
Arrives @ 15:43 +1 night
Platform# ???
SMTWTFS
Balamu Junction/BLM 

29 halts. 150 intermediate Stations between Lalgarh Junction and Balamu Junction

Show ALL intermediate Stations  Show Old Time-Table

#CodeStation NameX/OArrivesAvgDepartsAvgHaltPFDay#KmSpeedElevZoneAddress
1LGH»Lalgarh Junction»  -19:45-110.079225mNWRBikaner, Rajasthan
2LKSLunkaransarX  20:43-20:45-2m1176.172194mNWRLunkaransar, Rajasthan
3MHJMahajan  21:18-21:20-2m--1115.458199mNWRMahajan, Rajasthan
4SOGSuratgarh Junction (5)  22:25-22:30-5m--1178.165170mNWRSuratgarh, Rajasthan
5PGKPili Bangan  22:53-22:55-2m--1203.062176mNWRPilibanga, Rajasthan
6HMHHanumangarh Junction (4)X  23:20-23:25-5m--1228.774184mNWRHanumangarh, Rajasthan
7SGRASangaria  23:46-23:48-2m--1254.665193mNWRSangariya, Rajasthan
8MBYMandi Dabwali  00:16-00:18-2m--2284.830198mNWRMandi Dabwali, Haryana
9BTIBathinda Junction (6)01:30-02:00-30m42320.379208mNRBathinda, Punjab
10MAURMaur02:27-02:29-2m--2355.966220mNRMaur Mandi, Punjab
11MSZMansa  02:46-02:48-2m--2374.660222mNRMansa, Punjab
12BLZBudhlada03:04-03:05-1m--2390.7132223mNRBudhlada, Punjab
13BRZBareta03:12-03:14-2m--2406.1-223mNRBareta, Punjab
14JHLJakhal Junction  03:18-03:20-2m--2420.359225mNRJakhal, Haryana
15NRWNarwana Junction (4)X  03:58-04:00-2m--2458.064235mNRWay to Narwana, Haryana
16JINDJind Junction (3)  04:32-04:35-3m--2491.969222mNR126102., Haryana
17ROKRohtak Junction (3)  05:25-05:28-3m--2549.081220mNRRohtak, Haryana
18BGZBahadurgarhX  05:58-06:00-2m--2589.236220mNRBahadurgarh, Haryana
19SSBShakur BastiX  06:33-06:35-2m--2609.226216mNRPitampura, Delhi NCT
20DKZDelhi KishanGanj (2)  06:51-06:53-2m--2616.28220mNRSarai Rohilla, Delhi NCT
21DLIOld Delhi Junction (16)X  07:15-07:45-30m162619.022219mNRNear Chandni Chowk Metro Station, Delhi NCT
22GZBGhaziabad Junction (6)X  08:40-08:45-5m12639.161217mNRGhaziabad, Uttar Pradesh
23PKWPilkhua (3)X  09:10-09:12-2m12664.742218mNRPilkhuwa, Uttar Pradesh
24HPUHapur Junction (4)X  09:28-09:30-2m12675.880214mNRHapur Jn., Uttar Pradesh
25AMROAmroha (3)X  10:25-10:27-2m12749.243217mNRAmroha, Uttar Pradesh
26MBMoradabad Junction (7)X  11:10-11:20-10m--2779.853201mNRMoradabad, Uttar Pradesh
27RMURampur Junction (3)  11:51-11:53-2m--2807.156190mNRRampur, Uttar Pradesh
28BEBareilly Junction (4)  13:00-13:05-5m12870.158174mNRBareilly, Uttar Pradesh
29SPNShahjahanpur Junction (3)  14:18-14:23-5m--2940.680156mNRShahjahanpur, Uttar Pradesh
30HRIHardoi (5)  15:10-15:12-2m321003.664146mNRHardoi, Uttar Pradesh
31BLM•Balamu Junction (4)•X  15:43-15:45-2m--21036.634139mNRBalamau, Uttar Pradesh
32LKOLucknow Charbagh (9)X  17:45-18:10-25m121105.543123mNR226004, Uttar Pradesh
33BBKBarabanki Junction (4)X  18:50-18:52-2m321134.065122mNRPin-225001, Uttar Pradesh
34JLDJarwal Road (2)X  19:32-19:34-2m221177.260112mNERBehraich, Uttar Pradesh
35GDGonda Junction (3)X  20:20-20:35-15m221223.373110mNERGonda 271001, Uttar Pradesh
36MURMankapur Junction (5)  20:58-21:00-2m221251.281104mNERDistrict Gonda, Uttar Pradesh
37BSTBasti (4)X  21:45-21:50-5m221311.78190mNERBasti 272001, Uttar Pradesh
38KLDKhalilabad (3)X  22:12-22:14-2m221341.32786mNERKhalilabad- 272175, Uttar Pradesh
39GKPGorakhpur Junction (10)X  23:30-23:50-20m121375.24984mNERGorakhpur 273001, Uttar Pradesh
40SVSiwan Junction (4)X  02:15-02:20-5m--31493.87770mNERSiwan, Bihar
41EKMAEkma (3)XO  02:46-02:48-2m--31527.12564mNERSaran, Bihar
42CPRChhapra Junction (6)X  03:55-04:05-10m--31555.05958mNERDistt: Saran, Bihar
43SEESonpur Junction (4)  05:00-05:10-10m--31609.12556mECRSaran, Bihar
44HJPHajipur Junction (3)X  05:23-05:25-2m331614.64655mECR06224-272230, Bihar
45MFPMuzaffarpur Junction (6)X  06:35-06:45-10m131668.47057mECRMuzaffarpur, Bihar
46SPJSamastipur Junction (9)XO07:30-07:55-25m--31720.56655mECRSamastipur, Bihar
47DSSDalsingh Sarai (2)  08:16-08:18-2m231743.744 ECR06278-221238, Bihar
48BJUBarauni Junction (9)XO  08:55-09:05-10m431771.13849mECRBegusarai, Bihar
49BGSBegusarai (3)X  09:26-09:28-2m--31784.54946mECRBegusarai, Bihar
50KGGKhagaria Junction (3)XO  10:17-10:19-2m--31824.44843mECRKhagaria, Bihar
51MNEMansi Junction (4)X  10:30-10:32-2m--31833.24543mECRMansi, Bihar
52THBThana Bihpur Junction (3)O  11:28-11:30-2m--31875.24539mECRThana Bihpur, Bihar
53NNANaugachia (3)  11:51-11:53-2m--31891.13837mECRBhagalpur, Bihar
54KIRKatihar Junction (7)  13:25-13:45-20m631948.95635mNFRKatihar 854105, Bihar
55AZRAzamnagar Road (3)X  14:31-14:33-2m--31991.76234mNFRAzamnagar, Bihar
56BOEBarsoi Junction (3)  14:46-14:48-2m--32005.07637mNFRdist- katihar, Bihar
57DLKDalkhola (3)X  15:11-15:13-2m--32034.15044mNFRDalkola, West Bengal
58KNEKishanGanj (3)X  15:47-15:52-5m--32062.66152mNFRKishanganj, Bihar
59AUBAluabari Road (2)X  16:22-16:24-2m--32093.2370mNFRDist - uttar Dinajpur, West Bengal
60NJPNew Jalpaiguri Junction (8)XO  17:55-18:10-15m132149.942114mNFRCity-Siliguri . Dist-Jalpaiguri, West Bengal
61JPEJalpaiguri Road (2)  18:58-19:00-2m132183.46489mNFRdist - Jalpaiguri 735102, West Bengal
62DQGDhupguri (2)X  19:30-19:35-5m--32215.25675mNFRDist - Jalpaiguri, West Bengal
63NCBNew Cooch Behar Junction (5)X  20:40-20:45-5m--32275.44547mNFRDist : Cooch Behar-736101, West Bengal
64NOQNew Alipurduar (2)  21:10-21:15-5m--32294.18348mNFRDist - Alipurduar - 736121, West Bengal
65FKMFakiragram Junction (4)XO  22:05-22:07-2m332363.05444mNFR03661-283454, Assam
66KOJKokrajhar (3)X  22:18-22:20-2m232372.92846mNFR03661-270618, Assam
67NBQNew Bongaigaon Junction (4)X  23:20-23:30-10m--32400.85558mNFR783381., Assam
68BPRDBarpeta Road  00:18-00:20-2m--42444.97149mNFRHowli, Assam
69RNYRangiya Junction (5)  01:15-01:25-10m--42509.73958mNFRRangia, Assam
70KYQKamakhya Junction (4)  02:28-02:30-2m--42550.41455mNFRDist - KAMRUP, Assam
71GHYGuwahati (7)X  03:00-03:20-20m--42557.45060mNFRGuwahati, Assam
72JIDJagi Road (2)X  04:28-04:30-2m--42614.47662mNFRJagiroad, Assam
73CPKChaparmukh Junction (3)X  04:57-04:59-2m--42648.45965mNFRChaparmukh. Dist. Nagaon. Changing point for HBN/SHTT, Assam
74HJIHojai (2)  05:44-05:46-2m--42692.93478mNFRHojai Rd. Ph:- 03674-252136., Assam
75LMGLumding Junction (5)X  07:05-07:10-5m--42738.132142mNFRLumding, Assam
76DPUDiphu (2)X  08:10-08:12-2m--42770.242180mNFRDiphu, Assam
77DMVDimapur (3)  09:05-09:10-5m--42807.540153mNFRDimapur, Nagaland
78FKGFurkating Junction (2)  10:55-10:57-2m--42877.760 NFRK B Rd, Assam
79MXNMariani Junction (4)  11:35-11:45-10m--42915.774117mNFRDist. Jorhat Pin-785634, Assam
80SLGRSimaluguri Junction (3)  12:29-12:31-2m--42969.94199mNFRSimaluguri, Assam
81NTSKNew Tinsukia Junction (3)  15:00----43072.4-124mNFRDist: Tinsukia, Assam
Scroll to Top
Scroll to Bottom